Terminal Aerodrome Forecast
Issued by NWS Cleveland, OH

Home | Current Version | Previous Version | Text Only | Print | Product List | Glossary Off
Versions: 1 2 3 4 5 6 7 8 9 10 11 12 13 14 15 16

964
FTUS41 KCLE 261740
TAFTOL
TAF
KTOL 261740Z 2618/2718 02012KT P6SM OVC010
     FM271000 04008KT P6SM SCT012 OVC025
     FM271400 06012KT P6SM OVC040=

USA.gov is the U.S. government's official web portal to all federal, state and local government web resources and services.